CheckWX is a tool to help pilots better visualize weather data.  It is not intended as a substitute for an official pre-flight weather briefing.

01:08:54 UTC

MMZO TAF
Playa De Oro International Airport
Manzanillo, Mexico
TAF MMZO 231643Z 2318/2418 23010KT P6SM SCT020 BKN100 BECMG 2320/2321 24020KT FM240200 32008KT P6SM SCT100 BKN220 BECMG 2405/2406 00000KT BKN220 FM241200 00000KT 6SM HZ BKN220

Feb-23@
18:00 UTC

Feb-23 @ 18:00 UTC

Feb-23@
20:00 UTC

Feb-23 @ 20:00 UTC

TAF MMZO 231643Z 2318/2418 23010KT P6SM SCT020 BKN100

Expired

Wind
  • 230° at 10 KTS
Cloud Levels
  • Scattered at 2,000' AGL
  • Broken at 10,000' AGL

Feb-23@
20:00 UTC

Feb-23 @ 20:00 UTC

Feb-24@
02:00 UTC

Feb-24 @ 02:00 UTC

BECMG 2320/2321 24020KT

Becoming

Becoming Conditions expected by Sat, Feb 23, 2019 @ 21:00 UTC

Wind
  • 240° at 20 KTS
Cloud Levels
  • Scattered at 2,000' AGL
  • Broken at 10,000' AGL

Feb-24@
02:00 UTC

Feb-24 @ 02:00 UTC

Feb-24@
05:00 UTC

Feb-24 @ 05:00 UTC

FM240200 32008KT P6SM SCT100 BKN220

From

From Standard forecast or significant change

Wind
  • 320° at 8 KTS
Cloud Levels
  • Scattered at 10,000' AGL
  • Broken at 22,000' AGL

Feb-24@
05:00 UTC

Feb-24 @ 05:00 UTC

Feb-24@
12:00 UTC

Feb-24 @ 12:00 UTC

BECMG 2405/2406 00000KT BKN220

Becoming

Becoming Conditions expected by Sun, Feb 24, 2019 @ 06:00 UTC

Cloud Levels
  • Broken at 22,000' AGL

Feb-24@
12:00 UTC

Feb-24 @ 12:00 UTC

Feb-24@
18:00 UTC

Feb-24 @ 18:00 UTC

FM241200 00000KT 6SM HZ BKN220

From

From Standard forecast or significant change

Conditions
Haze
Cloud Levels
  • Broken at 22,000' AGL